Time;durP1;ratioP1;P1;durP2;ratioP2;P2;SDS_P1;SDS_P2;PMS_P1;PMS_P2;Temp;Humidity;BMP_temperature;BMP_pressure;BME280_temperature;BME280_humidity;BME280_pressure;Samples;Min_cycle;Max_cycle;Signal;HPM_P1;HPM_P2
2023/06/08 00:00:00;;;;;;;6.10;5.60;;;;;;;;;;5057088;28;20032;-32
2023/06/08 00:02:28;;;;;;;5.15;4.68;;;;;;;;;;5056882;28;20531;-28
2023/06/08 00:04:55;;;;;;;7.18;5.07;;;;;;;;;;5057134;28;20056;-31
2023/06/08 00:07:24;;;;;;;5.93;5.32;;;;;;;;;;5057001;28;20029;-26
2023/06/08 00:09:51;;;;;;;7.10;5.88;;;;;;;;;;5057264;28;20044;-29
2023/06/08 00:12:18;;;;;;;6.55;4.32;;;;;;;;;;5057114;28;20043;-32
2023/06/08 00:14:45;;;;;;;5.03;4.63;;;;;;;;;;5057105;28;20045;-32
2023/06/08 00:17:11;;;;;;;5.57;4.45;;;;;;;;;;5057217;28;20452;-27
2023/06/08 00:19:37;;;;;;;5.28;4.68;;;;;;;;;;5057092;28;20053;-31
2023/06/08 00:22:04;;;;;;;6.93;4.45;;;;;;;;;;5056988;28;20036;-28
2023/06/08 00:24:31;;;;;;;7.50;5.65;;;;;;;;;;5056718;28;20021;-32
2023/06/08 00:26:58;;;;;;;4.97;4.57;;;;;;;;;;5056683;28;20039;-31
2023/06/08 00:29:24;;;;;;;6.03;4.95;;;;;;;;;;5056617;28;20130;-29
2023/06/08 00:31:50;;;;;;;7.22;4.50;;;;;;;;;;5056452;28;20466;-33
2023/06/08 00:34:17;;;;;;;6.78;5.20;;;;;;;;;;5056821;28;20051;-28
2023/06/08 00:36:43;;;;;;;5.32;4.82;;;;;;;;;;5056658;28;20029;-30
2023/06/08 00:39:09;;;;;;;7.15;6.43;;;;;;;;;;5055480;28;20021;-27
2023/06/08 00:41:35;;;;;;;6.20;5.00;;;;;;;;;;5056704;28;20102;-28
2023/06/08 00:44:01;;;;;;;5.25;4.68;;;;;;;;;;5056306;28;20025;-31
2023/06/08 00:46:30;;;;;;;5.32;4.90;;;;;;;;;;5057159;28;20107;-33
2023/06/08 00:48:57;;;;;;;5.88;5.25;;;;;;;;;;5056226;28;20072;-27
2023/06/08 00:51:23;;;;;;;5.57;5.07;;;;;;;;;;5056202;28;20429;-29
2023/06/08 00:53:50;;;;;;;5.30;4.93;;;;;;;;;;5056348;28;20352;-28
2023/06/08 00:56:16;;;;;;;5.80;5.15;;;;;;;;;;5056034;28;20017;-29
2023/06/08 00:58:48;;;;;;;6.47;5.93;;;;;;;;;;5056328;28;20529;-28
2023/06/08 01:01:18;;;;;;;5.65;5.15;;;;;;;;;;5056571;28;20344;-30
2023/06/08 01:03:47;;;;;;;6.55;4.72;;;;;;;;;;5055865;28;20123;-30
2023/06/08 01:06:16;;;;;;;5.03;4.65;;;;;;;;;;5055939;28;20029;-27
2023/06/08 01:08:48;;;;;;;5.22;4.82;;;;;;;;;;5056190;28;20087;-29
2023/06/08 01:11:14;;;;;;;9.60;4.45;;;;;;;;;;5056127;28;20033;-31
2023/06/08 01:14:00;;;;;;;5.47;5.00;;;;;;;;;;5055113;28;20029;-32
2023/06/08 01:16:32;;;;;;;5.32;4.85;;;;;;;;;;5056019;28;20112;-33
2023/06/08 01:18:59;;;;;;;5.57;5.15;;;;;;;;;;5056003;28;20017;-30
2023/06/08 01:21:25;;;;;;;9.90;4.88;;;;;;;;;;5055943;28;20175;-32
2023/06/08 01:24:05;;;;;;;4.85;4.45;;;;;;;;;;5055824;28;20352;-30
2023/06/08 01:26:32;;;;;;;5.22;4.72;;;;;;;;;;5055814;28;20036;-30
2023/06/08 01:28:58;;;;;;;9.05;5.82;;;;;;;;;;5056238;28;20451;-28
2023/06/08 01:31:24;;;;;;;6.45;4.93;;;;;;;;;;5055742;28;20047;-32
2023/06/08 01:33:50;;;;;;;5.50;4.93;;;;;;;;;;5055323;28;20025;-30
2023/06/08 01:36:17;;;;;;;5.90;5.32;;;;;;;;;;5055521;28;20087;-31
2023/06/08 01:38:54;;;;;;;5.32;4.82;;;;;;;;;;5055601;28;20047;-30
2023/06/08 01:41:24;;;;;;;6.05;4.50;;;;;;;;;;5055359;28;20049;-32
2023/06/08 01:43:51;;;;;;;4.72;4.25;;;;;;;;;;5055463;28;20025;-29
2023/06/08 01:46:19;;;;;;;5.63;4.70;;;;;;;;;;5055463;28;20029;-28
2023/06/08 01:48:46;;;;;;;5.40;4.82;;;;;;;;;;5055151;28;20021;-30
2023/06/08 01:51:13;;;;;;;5.32;4.55;;;;;;;;;;5055430;28;20044;-33
2023/06/08 01:53:40;;;;;;;5.55;4.80;;;;;;;;;;5055256;28;20036;-32
2023/06/08 01:56:06;;;;;;;5.82;4.50;;;;;;;;;;5054900;28;20020;-34
2023/06/08 01:58:32;;;;;;;5.68;5.18;;;;;;;;;;5055270;28;20028;-32
2023/06/08 02:00:58;;;;;;;6.30;4.85;;;;;;;;;;5055479;28;20032;-28
2023/06/08 02:03:25;;;;;;;5.05;4.65;;;;;;;;;;5054595;28;20044;-32
2023/06/08 02:05:51;;;;;;;5.32;4.70;;;;;;;;;;5054830;28;20029;-27
2023/06/08 02:08:17;;;;;;;5.90;5.45;;;;;;;;;;5054834;28;20025;-27
2023/06/08 02:10:43;;;;;;;4.65;4.25;;;;;;;;;;5054806;28;20364;-29
2023/06/08 02:13:09;;;;;;;5.03;4.57;;;;;;;;;;5054731;28;20057;-29
2023/06/08 02:15:35;;;;;;;5.22;4.82;;;;;;;;;;5054608;28;20032;-30
2023/06/08 02:18:01;;;;;;;5.88;4.78;;;;;;;;;;5054680;28;20100;-30
2023/06/08 02:20:30;;;;;;;4.90;4.55;;;;;;;;;;5054686;28;20452;-30
2023/06/08 02:22:56;;;;;;;5.65;5.20;;;;;;;;;;5054808;28;20100;-28
2023/06/08 02:25:23;;;;;;;5.75;4.95;;;;;;;;;;5054243;28;20029;-32
2023/06/08 02:27:49;;;;;;;5.88;4.75;;;;;;;;;;5053983;28;20444;-31
2023/06/08 02:30:16;;;;;;;6.13;4.70;;;;;;;;;;5054773;28;20455;-29
2023/06/08 02:32:45;;;;;;;6.53;4.38;;;;;;;;;;5054483;28;20055;-33
2023/06/08 02:35:11;;;;;;;5.47;4.72;;;;;;;;;;5054359;28;20025;-27
2023/06/08 02:37:37;;;;;;;4.90;4.38;;;;;;;;;;5055005;28;20025;-29
2023/06/08 02:40:04;;;;;;;5.75;5.28;;;;;;;;;;5054420;28;20125;-27
2023/06/08 02:42:30;;;;;;;5.05;4.63;;;;;;;;;;5054670;28;20079;-29
2023/06/08 02:44:56;;;;;;;4.95;4.50;;;;;;;;;;5054660;28;20021;-30
2023/06/08 02:47:22;;;;;;;5.30;4.80;;;;;;;;;;5053417;28;20104;-31
2023/06/08 02:49:48;;;;;;;4.63;4.10;;;;;;;;;;5054639;28;20355;-29
2023/06/08 02:52:15;;;;;;;5.18;4.78;;;;;;;;;;5054266;28;20030;-27
2023/06/08 02:54:41;;;;;;;5.40;5.03;;;;;;;;;;5054473;28;20096;-28
2023/06/08 02:57:07;;;;;;;5.03;4.65;;;;;;;;;;5055067;28;20027;-27
2023/06/08 02:59:33;;;;;;;5.90;5.40;;;;;;;;;;5054281;28;20017;-29
2023/06/08 03:01:59;;;;;;;4.38;3.97;;;;;;;;;;5054158;28;20025;-33
2023/06/08 03:04:27;;;;;;;5.63;4.53;;;;;;;;;;5053097;28;20045;-30
2023/06/08 03:06:54;;;;;;;4.82;4.53;;;;;;;;;;5054492;28;20106;-30
2023/06/08 03:09:24;;;;;;;4.90;4.50;;;;;;;;;;5054206;28;20029;-29
2023/06/08 03:11:50;;;;;;;5.15;4.80;;;;;;;;;;5054096;28;20033;-28
2023/06/08 03:14:18;;;;;;;4.90;4.50;;;;;;;;;;5054124;28;20029;-29
2023/06/08 03:16:45;;;;;;;4.93;4.53;;;;;;;;;;5053969;28;20033;-28
2023/06/08 03:19:12;;;;;;;5.18;4.68;;;;;;;;;;5054137;28;20041;-30
2023/06/08 03:21:41;;;;;;;4.97;4.40;;;;;;;;;;5054075;28;20539;-31
2023/06/08 03:24:08;;;;;;;5.25;4.75;;;;;;;;;;5053942;28;20021;-28
2023/06/08 03:26:34;;;;;;;5.47;4.95;;;;;;;;;;5054052;28;20364;-29
2023/06/08 03:29:00;;;;;;;5.03;4.63;;;;;;;;;;5054022;28;20032;-29
2023/06/08 03:31:29;;;;;;;10.00;5.60;;;;;;;;;;5054248;28;20094;-29
2023/06/08 03:33:56;;;;;;;4.65;4.32;;;;;;;;;;5054158;28;20047;-29
2023/06/08 03:36:33;;;;;;;5.07;4.60;;;;;;;;;;5054173;28;20040;-28
2023/06/08 03:39:00;;;;;;;5.88;4.88;;;;;;;;;;5057607;28;20025;-32
2023/06/08 03:41:26;;;;;;;5.05;4.65;;;;;;;;;;5057856;28;20025;-31
2023/06/08 03:43:54;;;;;;;4.47;4.18;;;;;;;;;;5057737;28;20393;-28
2023/06/08 03:46:20;;;;;;;4.60;4.20;;;;;;;;;;5057404;28;20025;-29
2023/06/08 03:48:47;;;;;;;5.82;5.43;;;;;;;;;;5057669;28;20036;-30
2023/06/08 03:51:14;;;;;;;4.95;4.60;;;;;;;;;;5057339;28;20032;-30
2023/06/08 03:53:40;;;;;;;5.40;4.93;;;;;;;;;;5057306;28;20036;-32
2023/06/08 03:56:06;;;;;;;5.65;5.18;;;;;;;;;;5057141;28;20040;-26
2023/06/08 03:58:32;;;;;;;5.15;4.75;;;;;;;;;;5057137;28;20055;-29
2023/06/08 04:00:59;;;;;;;4.53;4.22;;;;;;;;;;5057274;28;20356;-27
2023/06/08 04:03:26;;;;;;;4.53;4.22;;;;;;;;;;5056875;28;20397;-29
2023/06/08 04:05:52;;;;;;;4.45;4.15;;;;;;;;;;5057416;28;20021;-29
2023/06/08 04:08:18;;;;;;;4.88;4.47;;;;;;;;;;5057239;28;20032;-29
2023/06/08 04:10:45;;;;;;;4.72;4.32;;;;;;;;;;5056837;28;20039;-33
2023/06/08 04:13:11;;;;;;;4.45;4.15;;;;;;;;;;5056815;28;20029;-32
2023/06/08 04:15:37;;;;;;;5.07;4.53;;;;;;;;;;5055687;28;20110;-32
2023/06/08 04:18:05;;;;;;;4.88;4.47;;;;;;;;;;5056858;28;20019;-30
2023/06/08 04:20:32;;;;;;;4.18;3.85;;;;;;;;;;5056724;28;20356;-35
2023/06/08 04:22:58;;;;;;;5.45;4.88;;;;;;;;;;5056569;28;20036;-32
2023/06/08 04:25:25;;;;;;;6.47;5.78;;;;;;;;;;5056694;28;20111;-34
2023/06/08 04:27:52;;;;;;;5.25;4.85;;;;;;;;;;5056334;28;20032;-33
2023/06/08 04:30:18;;;;;;;4.55;4.15;;;;;;;;;;5056537;28;20029;-29
2023/06/08 04:32:44;;;;;;;5.50;5.00;;;;;;;;;;5056590;28;20329;-31
2023/06/08 04:35:10;;;;;;;4.55;4.25;;;;;;;;;;5056543;28;20498;-31
2023/06/08 04:37:37;;;;;;;4.40;4.00;;;;;;;;;;5056602;28;20021;-31
2023/06/08 04:40:04;;;;;;;4.78;4.38;;;;;;;;;;5056358;28;20021;-25
2023/06/08 04:42:33;;;;;;;6.15;4.35;;;;;;;;;;5056141;28;20046;-30
2023/06/08 04:45:00;;;;;;;5.07;4.63;;;;;;;;;;5056586;28;20048;-30
2023/06/08 04:47:29;;;;;;;5.53;5.03;;;;;;;;;;5056153;28;20017;-30
2023/06/08 04:49:56;;;;;;;4.00;3.70;;;;;;;;;;5055262;28;20401;-28
2023/06/08 04:52:22;;;;;;;4.28;3.97;;;;;;;;;;5055900;28;20064;-30
2023/06/08 04:54:52;;;;;;;4.75;4.03;;;;;;;;;;5055925;28;20036;-29
2023/06/08 04:57:21;;;;;;;4.38;4.07;;;;;;;;;;5055889;28;20403;-28
2023/06/08 04:59:47;;;;;;;6.10;4.18;;;;;;;;;;5055861;28;20056;-28
2023/06/08 05:02:13;;;;;;;4.82;4.45;;;;;;;;;;5055980;28;20036;-28
2023/06/08 05:04:39;;;;;;;4.63;4.32;;;;;;;;;;5055616;28;20460;-28
2023/06/08 05:07:06;;;;;;;6.25;4.05;;;;;;;;;;5055979;28;20352;-31
2023/06/08 05:09:32;;;;;;;5.03;4.63;;;;;;;;;;5055679;28;20028;-30
2023/06/08 05:11:58;;;;;;;5.13;4.50;;;;;;;;;;5055662;28;20032;-30
2023/06/08 05:14:24;;;;;;;5.22;4.78;;;;;;;;;;5055873;28;20039;-32
2023/06/08 05:16:50;;;;;;;4.40;4.10;;;;;;;;;;5055556;28;20107;-29
2023/06/08 05:19:16;;;;;;;5.68;4.50;;;;;;;;;;5055753;28;20021;-26
2023/06/08 05:21:42;;;;;;;4.25;3.95;;;;;;;;;;5055422;28;20316;-29
2023/06/08 05:24:08;;;;;;;4.78;4.38;;;;;;;;;;5055397;28;20415;-27
2023/06/08 05:26:35;;;;;;;4.72;4.43;;;;;;;;;;5055669;28;20028;-28
2023/06/08 05:29:01;;;;;;;4.10;3.80;;;;;;;;;;5055293;28;20029;-29
2023/06/08 05:31:28;;;;;;;6.63;4.38;;;;;;;;;;5055526;28;20398;-31
2023/06/08 05:33:54;;;;;;;7.10;4.72;;;;;;;;;;5055171;28;20090;-30
2023/06/08 05:36:20;;;;;;;4.75;4.13;;;;;;;;;;5055483;28;20340;-31
2023/06/08 05:38:46;;;;;;;8.75;4.38;;;;;;;;;;5055105;28;20017;-30
2023/06/08 05:41:12;;;;;;;7.00;3.85;;;;;;;;;;5055080;28;20353;-31
2023/06/08 05:43:38;;;;;;;4.80;4.40;;;;;;;;;;5054963;28;20021;-30
2023/06/08 05:46:05;;;;;;;4.93;3.97;;;;;;;;;;5055210;28;20036;-30
2023/06/08 05:48:31;;;;;;;5.95;4.57;;;;;;;;;;5054809;28;20079;-26
2023/06/08 05:50:57;;;;;;;7.60;4.10;;;;;;;;;;5054723;28;20067;-31
2023/06/08 05:53:23;;;;;;;5.47;4.38;;;;;;;;;;5054760;28;20033;-29
2023/06/08 05:55:49;;;;;;;7.57;4.53;;;;;;;;;;5054651;28;20126;-32
2023/06/08 05:58:16;;;;;;;5.78;4.03;;;;;;;;;;5054453;28;20025;-30
2023/06/08 06:03:19;;;;;;;7.10;4.55;;;;;;;;;;5420829;22;20207;-24
2023/06/08 06:05:46;;;;;;;6.82;3.80;;;;;;;;;;5054347;28;20045;-23
2023/06/08 06:08:12;;;;;;;7.05;4.50;;;;;;;;;;5054716;28;20057;-23
2023/06/08 06:10:38;;;;;;;6.65;4.45;;;;;;;;;;5054510;28;20281;-23
2023/06/08 06:13:04;;;;;;;5.63;5.13;;;;;;;;;;5054323;28;20025;-22
2023/06/08 06:15:30;;;;;;;5.22;4.15;;;;;;;;;;5054187;28;20463;-23
2023/06/08 06:17:58;;;;;;;4.40;4.00;;;;;;;;;;5054315;28;20053;-24
2023/06/08 06:20:27;;;;;;;3.58;3.28;;;;;;;;;;5054118;28;20029;-23
2023/06/08 06:22:53;;;;;;;4.32;4.03;;;;;;;;;;5054800;28;20025;-23
2023/06/08 06:25:21;;;;;;;4.57;3.95;;;;;;;;;;5054627;28;20136;-23
2023/06/08 06:27:47;;;;;;;4.63;4.18;;;;;;;;;;5054441;28;20086;-23
2023/06/08 06:30:14;;;;;;;7.00;4.53;;;;;;;;;;5054320;28;20052;-22
2023/06/08 06:32:40;;;;;;;4.95;3.90;;;;;;;;;;5054039;28;20120;-23
2023/06/08 06:35:07;;;;;;;4.25;3.90;;;;;;;;;;5054172;28;20036;-22
2023/06/08 06:37:36;;;;;;;10.73;4.80;;;;;;;;;;5054678;28;20021;-22
2023/06/08 06:40:06;;;;;;;3.65;3.35;;;;;;;;;;5054122;28;20021;-22
2023/06/08 06:42:33;;;;;;;5.67;4.10;;;;;;;;;;5054538;28;20344;-23
2023/06/08 06:45:00;;;;;;;5.38;3.70;;;;;;;;;;5054541;28;20044;-23
2023/06/08 06:47:26;;;;;;;6.47;4.10;;;;;;;;;;5054421;28;20348;-22
2023/06/08 06:49:52;;;;;;;4.93;3.75;;;;;;;;;;5054467;28;20432;-23
2023/06/08 06:52:18;;;;;;;5.25;3.75;;;;;;;;;;5054064;28;20101;-24
2023/06/08 06:54:44;;;;;;;3.83;3.50;;;;;;;;;;5054171;28;20045;-22
2023/06/08 06:57:10;;;;;;;11.77;5.25;;;;;;;;;;5054306;28;20033;-22
2023/06/08 06:59:36;;;;;;;7.28;4.40;;;;;;;;;;5054419;28;20037;-23
2023/06/08 07:02:03;;;;;;;4.45;4.05;;;;;;;;;;5053982;28;20025;-24
2023/06/08 07:04:31;;;;;;;4.90;4.10;;;;;;;;;;5053862;28;20123;-23
2023/06/08 07:06:57;;;;;;;8.63;4.20;;;;;;;;;;5054030;28;20360;-23
2023/06/08 07:09:24;;;;;;;4.25;3.90;;;;;;;;;;5054028;28;20308;-22
2023/06/08 07:11:51;;;;;;;4.60;4.20;;;;;;;;;;5054873;28;20100;-21
2023/06/08 07:14:17;;;;;;;8.18;4.68;;;;;;;;;;5058416;28;20025;-22
2023/06/08 07:16:43;;;;;;;5.47;4.07;;;;;;;;;;5058190;28;20025;-23
2023/06/08 07:19:10;;;;;;;4.55;4.00;;;;;;;;;;5057803;28;20028;-23
2023/06/08 07:21:38;;;;;;;4.88;3.80;;;;;;;;;;5058150;28;20028;-23
2023/06/08 07:24:05;;;;;;;4.40;3.92;;;;;;;;;;5040104;28;20348;-23
2023/06/08 07:26:31;;;;;;;5.05;3.70;;;;;;;;;;5058081;28;20036;-24
2023/06/08 07:29:00;;;;;;;4.38;3.75;;;;;;;;;;5058149;28;20043;-24
2023/06/08 07:31:29;;;;;;;5.18;4.35;;;;;;;;;;5057905;28;20104;-22
2023/06/08 07:33:56;;;;;;;3.88;3.58;;;;;;;;;;5057647;28;20021;-23
2023/06/08 07:36:23;;;;;;;16.67;4.32;;;;;;;;;;5057807;28;20052;-25
2023/06/08 07:38:50;;;;;;;12.35;4.78;;;;;;;;;;5057873;28;20433;-23
2023/06/08 07:41:17;;;;;;;5.93;4.57;;;;;;;;;;5057430;28;20021;-24
2023/06/08 07:43:43;;;;;;;8.77;4.25;;;;;;;;;;5057954;28;20343;-24
2023/06/08 07:46:10;;;;;;;7.60;4.75;;;;;;;;;;5039800;28;20032;-23
2023/06/08 07:48:36;;;;;;;4.60;4.20;;;;;;;;;;5057624;28;20394;-23
2023/06/08 07:51:02;;;;;;;6.20;4.57;;;;;;;;;;5057797;28;20366;-23
2023/06/08 07:53:35;;;;;;;6.40;4.32;;;;;;;;;;5057205;28;20032;-24
2023/06/08 07:56:01;;;;;;;5.05;3.88;;;;;;;;;;5039470;28;20067;-22
2023/06/08 07:58:27;;;;;;;9.43;3.97;;;;;;;;;;5057259;28;20051;-24
2023/06/08 08:00:53;;;;;;;4.72;4.32;;;;;;;;;;5057322;28;20114;-23
2023/06/08 08:03:19;;;;;;;5.68;5.10;;;;;;;;;;5056810;28;20045;-23
2023/06/08 08:05:48;;;;;;;7.07;4.38;;;;;;;;;;5038996;28;20025;-23
2023/06/08 08:08:14;;;;;;;9.18;4.55;;;;;;;;;;5056710;28;20028;-23
2023/06/08 08:10:41;;;;;;;9.52;4.20;;;;;;;;;;5057104;28;20328;-24
2023/06/08 08:13:08;;;;;;;5.97;4.28;;;;;;;;;;5057212;28;20052;-23
2023/06/08 08:15:34;;;;;;;6.63;3.92;;;;;;;;;;5057099;28;20131;-25
2023/06/08 08:18:01;;;;;;;10.32;5.03;;;;;;;;;;5056824;28;20028;-23
2023/06/08 08:20:27;;;;;;;10.60;4.18;;;;;;;;;;5056463;28;20021;-22
2023/06/08 08:22:53;;;;;;;9.95;4.35;;;;;;;;;;5056733;28;20406;-23
2023/06/08 08:25:19;;;;;;;6.70;4.13;;;;;;;;;;5056527;28;20112;-23
2023/06/08 08:27:46;;;;;;;5.60;3.95;;;;;;;;;;5056429;28;20025;-23
2023/06/08 08:30:12;;;;;;;7.85;4.53;;;;;;;;;;5056490;28;20029;-22
2023/06/08 08:32:38;;;;;;;4.30;3.90;;;;;;;;;;5038952;28;20029;-23
2023/06/08 08:35:05;;;;;;;5.18;4.75;;;;;;;;;;5038650;28;20036;-23
2023/06/08 08:37:31;;;;;;;5.88;4.00;;;;;;;;;;5056517;28;20044;-23
2023/06/08 08:39:58;;;;;;;8.35;4.30;;;;;;;;;;5056460;28;20374;-23
2023/06/08 08:42:28;;;;;;;6.00;4.80;;;;;;;;;;5055997;28;20102;-22
2023/06/08 08:44:55;;;;;;;7.43;4.45;;;;;;;;;;5056042;28;20074;-24
2023/06/08 08:47:26;;;;;;;5.05;4.55;;;;;;;;;;5056122;28;20021;-22
2023/06/08 08:50:00;;;;;;;6.63;4.45;;;;;;;;;;5056379;28;20025;-24
2023/06/08 08:52:29;;;;;;;4.43;4.10;;;;;;;;;;5055869;28;20104;-23
2023/06/08 08:54:57;;;;;;;4.50;4.05;;;;;;;;;;5038309;28;20029;-27
2023/06/08 08:57:27;;;;;;;5.80;3.85;;;;;;;;;;5056257;28;20359;-23
2023/06/08 08:59:54;;;;;;;5.22;4.57;;;;;;;;;;5056165;28;20464;-24
2023/06/08 09:02:21;;;;;;;4.90;4.50;;;;;;;;;;5038091;28;20091;-23
2023/06/08 09:04:47;;;;;;;5.13;4.30;;;;;;;;;;5055635;28;20447;-23
2023/06/08 09:07:18;;;;;;;5.60;4.53;;;;;;;;;;5055701;28;20036;-23
2023/06/08 09:10:03;;;;;;;9.05;4.55;;;;;;;;;;5055942;28;20032;-22
2023/06/08 09:12:39;;;;;;;5.10;4.47;;;;;;;;;;5055263;28;20040;-23
2023/06/08 09:15:07;;;;;;;7.45;5.22;;;;;;;;;;5055300;28;20029;-24
2023/06/08 09:17:37;;;;;;;7.38;4.90;;;;;;;;;;5055580;28;20013;-24
2023/06/08 09:20:10;;;;;;;8.23;4.68;;;;;;;;;;5055311;28;20021;-23
2023/06/08 09:22:37;;;;;;;6.00;4.97;;;;;;;;;;5055234;28;20021;-24
2023/06/08 09:25:04;;;;;;;5.80;4.43;;;;;;;;;;5055642;28;20083;-23
2023/06/08 09:27:31;;;;;;;7.43;5.38;;;;;;;;;;5055589;28;20100;-22
2023/06/08 09:29:59;;;;;;;5.72;4.88;;;;;;;;;;5055280;28;20096;-23
2023/06/08 09:32:33;;;;;;;5.43;4.93;;;;;;;;;;5037588;28;20337;-24
2023/06/08 09:35:03;;;;;;;5.00;4.50;;;;;;;;;;5054564;28;20444;-23
2023/06/08 09:37:33;;;;;;;4.53;4.03;;;;;;;;;;5055150;28;20071;-23
2023/06/08 09:40:00;;;;;;;9.70;4.75;;;;;;;;;;5055685;28;20474;-23
2023/06/08 09:42:46;;;;;;;7.13;4.53;;;;;;;;;;5055096;28;20104;-23
2023/06/08 09:45:12;;;;;;;6.35;4.47;;;;;;;;;;5055180;28;20402;-22
2023/06/08 09:47:39;;;;;;;9.25;4.35;;;;;;;;;;5055389;28;20044;-23
2023/06/08 09:50:07;;;;;;;4.90;4.50;;;;;;;;;;5054907;28;20035;-22
2023/06/08 09:52:34;;;;;;;5.45;4.47;;;;;;;;;;5055158;28;20028;-23
2023/06/08 09:55:00;;;;;;;9.68;4.63;;;;;;;;;;5055060;28;20025;-23
2023/06/08 09:57:28;;;;;;;7.10;4.22;;;;;;;;;;5054808;28;20049;-23
2023/06/08 09:59:56;;;;;;;12.75;5.55;;;;;;;;;;5055193;28;20029;-22
2023/06/08 10:02:27;;;;;;;8.30;4.28;;;;;;;;;;5055041;28;20031;-24
2023/06/08 10:04:55;;;;;;;9.93;5.30;;;;;;;;;;5054833;28;20094;-24
2023/06/08 10:07:29;;;;;;;7.78;5.28;;;;;;;;;;5055019;28;20076;-23
2023/06/08 10:09:59;;;;;;;5.25;4.82;;;;;;;;;;5054877;28;20040;-22
2023/06/08 10:12:27;;;;;;;6.95;4.25;;;;;;;;;;5054470;28;20052;-23
2023/06/08 10:14:53;;;;;;;4.88;3.75;;;;;;;;;;5054731;28;20486;-23
2023/06/08 10:17:20;;;;;;;8.63;4.50;;;;;;;;;;5054080;28;20033;-23
2023/06/08 10:19:46;;;;;;;7.75;5.05;;;;;;;;;;5054725;28;20409;-23
2023/06/08 10:22:12;;;;;;;11.98;4.55;;;;;;;;;;5054365;28;20082;-23
2023/06/08 10:24:39;;;;;;;7.53;4.32;;;;;;;;;;5055041;28;20021;-23
2023/06/08 10:27:10;;;;;;;7.72;6.03;;;;;;;;;;5036961;28;20063;-23
2023/06/08 10:29:36;;;;;;;6.78;4.47;;;;;;;;;;5054695;28;20147;-23
2023/06/08 10:32:05;;;;;;;10.65;4.70;;;;;;;;;;5054337;28;20396;-23
2023/06/08 10:34:40;;;;;;;7.40;4.40;;;;;;;;;;5054350;28;20025;-23
2023/06/08 10:37:06;;;;;;;5.25;4.47;;;;;;;;;;5054236;28;20072;-22
2023/06/08 10:39:53;;;;;;;9.02;4.78;;;;;;;;;;5054540;28;20032;-23
2023/06/08 10:42:19;;;;;;;5.38;4.88;;;;;;;;;;5053867;28;20044;-23
2023/06/08 10:44:52;;;;;;;10.18;4.68;;;;;;;;;;5054314;28;20348;-23
2023/06/08 10:47:18;;;;;;;7.53;4.53;;;;;;;;;;5055757;28;20033;-24
2023/06/08 10:49:45;;;;;;;5.05;4.57;;;;;;;;;;5058392;28;20029;-23
2023/06/08 10:52:17;;;;;;;9.52;4.82;;;;;;;;;;5058382;28;20121;-23
2023/06/08 10:54:52;;;;;;;7.93;5.00;;;;;;;;;;5058718;28;20040;-24
2023/06/08 10:57:55;;;;;;;6.85;4.40;;;;;;;;;;5057962;28;20078;-24
2023/06/08 11:00:29;;;;;;;8.05;4.85;;;;;;;;;;4997723;28;20042;-23
2023/06/08 11:03:15;;;;;;;10.02;4.63;;;;;;;;;;5049274;28;20045;-23
2023/06/08 11:05:43;;;;;;;13.45;5.22;;;;;;;;;;5058143;28;20102;-23
2023/06/08 11:08:10;;;;;;;6.40;4.18;;;;;;;;;;5058014;28;20040;-23
2023/06/08 11:10:39;;;;;;;8.35;4.90;;;;;;;;;;5058320;28;20112;-24
2023/06/08 11:13:06;;;;;;;9.90;4.55;;;;;;;;;;5058110;28;20029;-23
2023/06/08 11:15:35;;;;;;;12.30;4.97;;;;;;;;;;5058421;28;20029;-24
2023/06/08 11:18:03;;;;;;;6.47;4.63;;;;;;;;;;5057877;28;20056;-29
2023/06/08 11:20:30;;;;;;;8.15;4.32;;;;;;;;;;5057734;28;20031;-23
2023/06/08 11:22:56;;;;;;;4.97;4.55;;;;;;;;;;5057638;28;20032;-22
2023/06/08 11:25:23;;;;;;;8.38;4.45;;;;;;;;;;5058016;28;20423;-23
2023/06/08 11:27:55;;;;;;;7.80;5.07;;;;;;;;;;5057725;28;20051;-24
2023/06/08 11:30:22;;;;;;;7.72;4.57;;;;;;;;;;5058645;28;20052;-23
2023/06/08 11:32:48;;;;;;;6.45;4.78;;;;;;;;;;5057848;28;20048;-23
2023/06/08 11:35:15;;;;;;;7.60;4.32;;;;;;;;;;5057403;28;20044;-24
2023/06/08 11:37:43;;;;;;;8.02;5.45;;;;;;;;;;5039930;28;20370;-23
2023/06/08 11:40:13;;;;;;;10.52;4.70;;;;;;;;;;5057457;28;20103;-23
2023/06/08 11:42:40;;;;;;;6.18;5.05;;;;;;;;;;5057381;28;20028;-24
2023/06/08 11:45:09;;;;;;;6.30;4.72;;;;;;;;;;5057561;28;20025;-24
2023/06/08 11:47:36;;;;;;;6.57;4.85;;;;;;;;;;5057549;28;20100;-23
2023/06/08 11:50:03;;;;;;;5.75;4.93;;;;;;;;;;5057214;28;20020;-23
2023/06/08 11:52:33;;;;;;;10.73;5.18;;;;;;;;;;5057151;28;20025;-23
2023/06/08 11:55:01;;;;;;;6.03;4.97;;;;;;;;;;5056956;28;20021;-24
2023/06/08 11:57:37;;;;;;;7.43;5.65;;;;;;;;;;5056576;28;20025;-24
2023/06/08 12:00:06;;;;;;;8.23;5.07;;;;;;;;;;5057169;28;20017;-23
2023/06/08 12:02:35;;;;;;;8.60;4.68;;;;;;;;;;5056738;28;20053;-22
2023/06/08 12:05:01;;;;;;;6.22;5.25;;;;;;;;;;5056714;28;20440;-24
2023/06/08 12:07:27;;;;;;;5.82;4.75;;;;;;;;;;5056973;28;20104;-23
2023/06/08 12:09:53;;;;;;;4.85;4.43;;;;;;;;;;5056846;28;20506;-23
2023/06/08 12:12:20;;;;;;;8.15;5.00;;;;;;;;;;5056670;28;20414;-24
2023/06/08 12:14:46;;;;;;;8.10;5.20;;;;;;;;;;5056739;28;20151;-24
2023/06/08 12:17:15;;;;;;;11.43;4.30;;;;;;;;;;5056723;28;20112;-23
2023/06/08 12:19:48;;;;;;;5.15;4.55;;;;;;;;;;5057002;28;20017;-23
2023/06/08 12:22:14;;;;;;;5.20;4.40;;;;;;;;;;5057078;28;20046;-23
2023/06/08 12:24:40;;;;;;;7.35;5.50;;;;;;;;;;5056891;28;20021;-22
2023/06/08 12:27:07;;;;;;;5.57;4.75;;;;;;;;;;5056752;28;20388;-23
2023/06/08 12:29:33;;;;;;;5.53;4.63;;;;;;;;;;5056762;28;20031;-23
2023/06/08 12:32:00;;;;;;;4.95;4.53;;;;;;;;;;5038845;28;20025;-23
2023/06/08 12:34:29;;;;;;;9.50;4.47;;;;;;;;;;5056429;28;20056;-23
2023/06/08 12:36:55;;;;;;;5.68;4.97;;;;;;;;;;5056244;28;20029;-23
2023/06/08 12:39:21;;;;;;;10.25;5.07;;;;;;;;;;5056792;28;20029;-22
2023/06/08 12:41:47;;;;;;;6.50;4.90;;;;;;;;;;5056206;28;20024;-23
2023/06/08 12:44:14;;;;;;;7.45;4.30;;;;;;;;;;5056758;28;20025;-22
2023/06/08 12:46:40;;;;;;;6.40;4.70;;;;;;;;;;5056194;28;20036;-23
2023/06/08 12:49:06;;;;;;;4.40;4.00;;;;;;;;;;5056187;28;20025;-24
2023/06/08 12:51:33;;;;;;;7.20;4.63;;;;;;;;;;5038514;28;20115;-23
2023/06/08 12:53:59;;;;;;;5.40;4.65;;;;;;;;;;5056096;28;20036;-23
2023/06/08 12:56:26;;;;;;;9.30;4.85;;;;;;;;;;5056336;28;20025;-22
2023/06/08 12:58:53;;;;;;;10.15;4.45;;;;;;;;;;5056261;28;20102;-25
2023/06/08 13:01:22;;;;;;;8.45;4.30;;;;;;;;;;5056132;28;20109;-23
2023/06/08 13:03:48;;;;;;;6.00;5.40;;;;;;;;;;5055680;28;20108;-23
2023/06/08 13:06:15;;;;;;;7.07;4.47;;;;;;;;;;5038340;28;20348;-22
2023/06/08 13:08:41;;;;;;;7.15;4.55;;;;;;;;;;5055626;28;20068;-23
2023/06/08 13:11:07;;;;;;;6.60;4.57;;;;;;;;;;5055404;28;20094;-24
2023/06/08 13:13:35;;;;;;;9.88;5.20;;;;;;;;;;5056044;28;20039;-24
2023/06/08 13:16:01;;;;;;;5.53;4.85;;;;;;;;;;5055842;28;20024;-24
2023/06/08 13:18:27;;;;;;;6.68;5.00;;;;;;;;;;5055602;28;20382;-24
2023/06/08 13:20:54;;;;;;;5.65;4.43;;;;;;;;;;5055629;28;20032;-24
2023/06/08 13:23:20;;;;;;;12.27;5.18;;;;;;;;;;5055397;28;20029;-23
2023/06/08 13:25:47;;;;;;;5.43;4.82;;;;;;;;;;5055414;28;20413;-23
2023/06/08 13:28:14;;;;;;;6.97;4.90;;;;;;;;;;5037841;28;20028;-24
2023/06/08 13:30:40;;;;;;;9.27;4.88;;;;;;;;;;5055353;28;20033;-24
2023/06/08 13:33:07;;;;;;;7.47;5.85;;;;;;;;;;5055450;28;20029;-24
2023/06/08 13:35:33;;;;;;;4.95;4.45;;;;;;;;;;5055332;28;20110;-23
2023/06/08 13:37:59;;;;;;;7.22;5.03;;;;;;;;;;5055856;28;20029;-22
2023/06/08 13:40:31;;;;;;;7.75;6.13;;;;;;;;;;5055314;28;20025;-23
2023/06/08 13:42:57;;;;;;;11.60;4.80;;;;;;;;;;5055229;28;20100;-25
2023/06/08 13:45:23;;;;;;;5.40;4.90;;;;;;;;;;5037609;28;20051;-24
2023/06/08 13:47:50;;;;;;;5.88;4.15;;;;;;;;;;5055109;28;20035;-23
2023/06/08 13:50:16;;;;;;;8.13;4.90;;;;;;;;;;5055402;28;20047;-24
2023/06/08 13:52:42;;;;;;;8.20;4.50;;;;;;;;;;5055017;28;20539;-23
2023/06/08 13:55:09;;;;;;;12.32;4.97;;;;;;;;;;5037343;28;20036;-23
2023/06/08 13:57:35;;;;;;;6.30;5.70;;;;;;;;;;5037426;28;20029;-24
2023/06/08 14:00:02;;;;;;;9.45;5.63;;;;;;;;;;5055082;28;20060;-23
2023/06/08 14:02:29;;;;;;;9.88;4.95;;;;;;;;;;5054635;28;20064;-24
2023/06/08 14:04:56;;;;;;;12.18;6.38;;;;;;;;;;5054915;28;20051;-22
2023/06/08 14:07:22;;;;;;;19.23;6.63;;;;;;;;;;5055061;28;20036;-23
2023/06/08 14:09:48;;;;;;;8.35;6.35;;;;;;;;;;5054777;28;20021;-22
2023/06/08 14:12:15;;;;;;;7.72;4.72;;;;;;;;;;5054696;28;20044;-23
2023/06/08 14:14:41;;;;;;;9.73;5.47;;;;;;;;;;5054724;28;20447;-24
2023/06/08 14:17:07;;;;;;;7.43;5.45;;;;;;;;;;5054554;28;20025;-24
2023/06/08 14:19:33;;;;;;;6.75;4.88;;;;;;;;;;5054661;28;20036;-23
2023/06/08 14:21:59;;;;;;;7.63;4.85;;;;;;;;;;5054708;28;20017;-23
2023/06/08 14:24:27;;;;;;;5.70;5.20;;;;;;;;;;5054519;28;20363;-21
2023/06/08 14:26:53;;;;;;;7.35;5.47;;;;;;;;;;5054775;28;20025;-21
2023/06/08 14:29:19;;;;;;;5.70;5.15;;;;;;;;;;5055067;28;20033;-22
2023/06/08 14:31:45;;;;;;;5.25;4.78;;;;;;;;;;5054310;28;20104;-22
2023/06/08 14:34:11;;;;;;;9.30;5.07;;;;;;;;;;5054731;28;20031;-23
2023/06/08 14:36:37;;;;;;;5.22;4.70;;;;;;;;;;5054301;28;20025;-23
2023/06/08 14:39:03;;;;;;;5.78;5.28;;;;;;;;;;5036884;28;20025;-24
2023/06/08 14:41:30;;;;;;;7.95;4.53;;;;;;;;;;5054294;28;20440;-22
2023/06/08 14:43:56;;;;;;;8.30;5.75;;;;;;;;;;5054489;28;20029;-23
2023/06/08 14:46:22;;;;;;;5.93;5.43;;;;;;;;;;5054885;28;20029;-23